Terminal Aerodrome Forecast
Issued by NWS Portland, OR

Home | Current Version | Previous Version | Text Only | Print | Product List | Glossary On
Versions: 1 2 3 4 5 6 7 8 9 10 11 12 13 14
000
FTUS46 KPQR 192057 AAA
TAFTTD
TAF AMD
KTTD 192057Z 1921/2018 18010KT P6SM -SHRA SCT035 OVC050
     FM200100 12007KT P6SM -SHRA SCT025 BKN050
     FM200900 08005KT P6SM -RA BKN050=

USA.gov is the U.S. government's official web portal to all federal, state and local government web resources and services.